createdAt,value
2022-10-28T00:01:23.862Z,6.80
2022-10-28T00:03:53.445Z,7.85
2022-10-28T00:06:29.137Z,7.70
2022-10-28T00:08:56.243Z,7.45
2022-10-28T00:11:26.682Z,7.43
2022-10-28T00:13:55.258Z,7.18
2022-10-28T00:16:25.293Z,7.32
2022-10-28T00:18:53.939Z,7.60
2022-10-28T00:21:26.362Z,8.30
2022-10-28T00:23:54.000Z,7.78
2022-10-28T00:26:23.209Z,7.15
2022-10-28T00:28:53.374Z,7.05
2022-10-28T00:31:22.202Z,7.38
2022-10-28T00:33:49.393Z,8.15
2022-10-28T00:36:24.535Z,7.45
2022-10-28T00:38:53.041Z,8.00
2022-10-28T00:41:25.343Z,7.97
2022-10-28T00:43:54.141Z,6.85
2022-10-28T00:46:45.007Z,7.97
2022-10-28T00:49:26.489Z,7.18
2022-10-28T00:51:57.921Z,7.47
2022-10-28T00:54:25.196Z,8.27
2022-10-28T00:56:55.310Z,7.25
2022-10-28T00:59:31.262Z,7.40
2022-10-28T01:01:58.176Z,7.63
2022-10-28T01:04:25.472Z,7.60
2022-10-28T01:06:52.884Z,7.53
2022-10-28T01:09:19.587Z,8.15
2022-10-28T01:12:19.738Z,7.97
2022-10-28T01:15:09.658Z,7.10
2022-10-28T01:17:36.279Z,7.68
2022-10-28T01:20:27.218Z,8.15
2022-10-28T01:23:11.917Z,6.68
2022-10-28T01:25:46.763Z,7.43
2022-10-28T01:28:35.092Z,7.47
2022-10-28T01:31:13.609Z,7.05
2022-10-28T01:33:47.872Z,7.72
2022-10-28T01:36:31.416Z,7.30
2022-10-28T01:39:08.671Z,7.78
2022-10-28T01:41:48.327Z,7.93
2022-10-28T01:44:39.193Z,8.10
2022-10-28T01:47:14.521Z,7.72
2022-10-28T01:49:49.383Z,8.48
2022-10-28T01:52:20.770Z,7.75
2022-10-28T01:54:50.836Z,7.90
2022-10-28T01:57:18.857Z,7.47
2022-10-28T01:59:48.399Z,7.47
2022-10-28T02:02:15.965Z,8.98
2022-10-28T02:04:42.620Z,7.50
2022-10-28T02:07:09.594Z,7.50
2022-10-28T02:10:14.296Z,7.72
2022-10-28T02:12:41.030Z,8.80
2022-10-28T02:15:38.658Z,7.88
2022-10-28T02:18:30.741Z,8.07
2022-10-28T02:21:10.170Z,7.85
2022-10-28T02:23:55.336Z,8.13
2022-10-28T02:26:34.982Z,8.00
2022-10-28T02:29:29.842Z,6.97
2022-10-28T02:32:02.700Z,8.55
2022-10-28T02:34:33.803Z,8.70
2022-10-28T02:37:05.169Z,7.07
2022-10-28T02:39:38.345Z,8.50
2022-10-28T02:42:10.741Z,8.00
2022-10-28T02:44:44.025Z,8.35
2022-10-28T02:47:15.612Z,8.40
2022-10-28T02:49:47.202Z,7.80
2022-10-28T02:52:16.566Z,8.15
2022-10-28T02:54:50.004Z,9.03
2022-10-28T02:57:23.614Z,8.30
2022-10-28T03:00:02.007Z,8.43
2022-10-28T03:02:28.961Z,8.35
2022-10-28T03:04:55.642Z,7.43
2022-10-28T03:07:22.633Z,8.60
2022-10-28T03:09:49.289Z,7.78
2022-10-28T03:12:15.885Z,8.38
2022-10-28T03:14:42.635Z,7.90
2022-10-28T03:17:09.406Z,8.13
2022-10-28T03:19:36.144Z,7.97
2022-10-28T03:22:02.895Z,7.88
2022-10-28T03:24:29.501Z,7.85
2022-10-28T03:26:56.264Z,8.20
2022-10-28T03:29:22.938Z,8.63
2022-10-28T03:31:49.689Z,7.90
2022-10-28T03:34:16.361Z,7.32
2022-10-28T03:36:42.984Z,8.13
2022-10-28T03:39:09.750Z,8.88
2022-10-28T03:41:36.380Z,7.28
2022-10-28T03:44:03.060Z,7.13
2022-10-28T03:46:32.256Z,8.38
2022-10-28T03:49:01.947Z,6.65
2022-10-28T03:51:28.679Z,7.40
2022-10-28T03:53:55.297Z,7.22
2022-10-28T03:56:22.090Z,7.95
2022-10-28T03:58:49.375Z,7.70
2022-10-28T04:01:16.254Z,6.97
2022-10-28T04:03:42.984Z,8.25
2022-10-28T04:06:12.556Z,8.27
2022-10-28T04:08:39.295Z,7.70
2022-10-28T04:11:06.339Z,8.63
2022-10-28T04:13:32.979Z,7.47
2022-10-28T04:15:59.703Z,7.30
2022-10-28T04:18:26.360Z,8.27
2022-10-28T04:20:53.168Z,7.80
2022-10-28T04:23:19.859Z,8.25
2022-10-28T04:25:47.466Z,7.65
2022-10-28T04:28:14.229Z,8.55
2022-10-28T04:30:40.878Z,8.20
2022-10-28T04:33:07.532Z,8.05
2022-10-28T04:35:34.180Z,8.45
2022-10-28T04:38:00.916Z,7.28
2022-10-28T04:40:27.618Z,7.38
2022-10-28T04:42:54.486Z,8.57
2022-10-28T04:45:21.322Z,8.50
2022-10-28T04:47:47.965Z,8.27
2022-10-28T04:50:14.678Z,7.50
2022-10-28T04:52:41.284Z,8.45
2022-10-28T04:55:08.357Z,8.05
2022-10-28T04:57:34.986Z,8.10
2022-10-28T05:00:01.756Z,7.65
2022-10-28T05:02:28.805Z,7.93
2022-10-28T05:04:55.484Z,8.43
2022-10-28T05:07:23.582Z,8.70
2022-10-28T05:09:50.400Z,8.45
2022-10-28T05:12:17.157Z,8.80
2022-10-28T05:14:43.903Z,8.15
2022-10-28T05:17:11.311Z,9.10
2022-10-28T05:19:37.948Z,9.80
2022-10-28T05:22:04.625Z,9.02
2022-10-28T05:24:31.246Z,9.45
2022-10-28T05:26:59.861Z,8.80
2022-10-28T05:29:30.902Z,9.27
2022-10-28T05:32:00.173Z,9.63
2022-10-28T05:34:27.080Z,9.18
2022-10-28T05:36:53.701Z,8.55
2022-10-28T05:39:20.313Z,9.80
2022-10-28T05:41:47.062Z,10.05
2022-10-28T05:44:13.699Z,8.82
2022-10-28T05:46:40.464Z,9.85
2022-10-28T05:49:07.259Z,9.52
2022-10-28T05:51:34.000Z,9.30
2022-10-28T05:54:00.638Z,9.30
2022-10-28T05:56:27.373Z,9.75
2022-10-28T05:58:54.067Z,9.95
2022-10-28T06:01:20.797Z,8.85
2022-10-28T06:03:47.470Z,9.23
2022-10-28T06:06:14.113Z,8.23
2022-10-28T06:08:40.757Z,9.05
2022-10-28T06:11:05.809Z,9.43
2022-10-28T06:13:32.449Z,9.68
2022-10-28T06:15:59.088Z,8.75
2022-10-28T06:18:25.801Z,10.75
2022-10-28T06:20:57.066Z,10.40
2022-10-28T06:23:25.319Z,10.60
2022-10-28T06:28:24.592Z,15.30
2022-10-28T06:30:51.527Z,11.90
2022-10-28T06:33:18.525Z,11.60
2022-10-28T06:35:45.224Z,12.30
2022-10-28T06:38:11.929Z,12.10
2022-10-28T06:40:38.593Z,11.50
2022-10-28T06:43:07.138Z,11.27
2022-10-28T06:45:34.349Z,12.40
2022-10-28T06:48:05.077Z,11.27
2022-10-28T06:50:32.955Z,10.90
2022-10-28T06:52:59.648Z,13.07
2022-10-28T06:55:27.087Z,12.20
2022-10-28T06:57:54.124Z,12.70
2022-10-28T07:00:21.053Z,11.43
2022-10-28T07:02:52.834Z,11.18
2022-10-28T07:05:19.845Z,12.00
2022-10-28T07:07:46.506Z,12.50
2022-10-28T07:10:13.342Z,12.98
2022-10-28T07:12:39.944Z,11.68
2022-10-28T07:15:07.230Z,11.57
2022-10-28T07:17:33.887Z,10.80
2022-10-28T07:20:00.549Z,13.02
2022-10-28T07:22:27.174Z,13.98
2022-10-28T07:24:54.063Z,12.15
2022-10-28T07:27:20.751Z,12.82
2022-10-28T07:29:47.412Z,13.30
2022-10-28T07:32:14.077Z,11.70
2022-10-28T07:34:40.739Z,15.60
2022-10-28T07:37:07.446Z,15.48
2022-10-28T07:39:34.202Z,14.00
2022-10-28T07:42:01.393Z,13.75
2022-10-28T07:44:28.150Z,11.60
2022-10-28T07:46:58.001Z,11.35
2022-10-28T07:51:52.014Z,9.10
2022-10-28T07:54:18.710Z,9.68
2022-10-28T07:56:45.522Z,8.45
2022-10-28T07:59:12.138Z,7.95
2022-10-28T08:01:39.081Z,8.38
2022-10-28T08:04:05.782Z,8.20
2022-10-28T08:06:34.713Z,7.65
2022-10-28T08:09:01.722Z,7.03
2022-10-28T08:11:28.355Z,6.40
2022-10-28T08:13:55.913Z,6.50
2022-10-28T08:16:22.789Z,6.10
2022-10-28T08:18:49.429Z,6.50
2022-10-28T08:24:10.626Z,6.15
2022-10-28T08:26:37.250Z,6.30
2022-10-28T08:29:04.040Z,5.20
2022-10-28T08:31:33.271Z,6.03
2022-10-28T08:33:59.878Z,6.00
2022-10-28T08:36:26.663Z,5.18
2022-10-28T08:38:53.259Z,5.40
2022-10-28T08:41:33.282Z,5.60
2022-10-28T08:44:31.310Z,5.60
2022-10-28T08:47:39.869Z,4.93
2022-10-28T08:50:16.387Z,5.50
2022-10-28T08:52:54.519Z,5.30
2022-10-28T08:55:35.195Z,5.43
2022-10-28T08:58:09.348Z,4.63
2022-10-28T09:00:36.871Z,5.50
2022-10-28T09:03:24.542Z,5.13
2022-10-28T09:06:05.448Z,4.95
2022-10-28T09:08:40.244Z,5.05
2022-10-28T09:11:46.555Z,4.85
2022-10-28T09:14:52.917Z,4.72
2022-10-28T09:17:51.303Z,5.55
2022-10-28T09:20:29.696Z,5.30
2022-10-28T09:22:59.051Z,5.93
2022-10-28T09:25:49.179Z,6.17
2022-10-28T09:28:37.485Z,5.07
2022-10-28T09:31:25.815Z,4.60
2022-10-28T09:34:19.696Z,5.45
2022-10-28T09:36:52.895Z,4.90
2022-10-28T09:39:31.363Z,4.82
2022-10-28T09:42:01.156Z,4.90
2022-10-28T09:44:41.168Z,4.75
2022-10-28T09:47:26.557Z,5.30
2022-10-28T09:49:59.012Z,5.15
2022-10-28T09:52:32.255Z,4.47
2022-10-28T09:55:03.123Z,4.55
2022-10-28T09:57:32.782Z,4.35
2022-10-28T10:00:00.062Z,5.15
2022-10-28T10:02:32.233Z,4.00
2022-10-28T10:05:01.299Z,4.30
2022-10-28T10:07:40.966Z,4.78
2022-10-28T10:10:31.241Z,4.45
2022-10-28T10:15:36.742Z,4.80
2022-10-28T10:18:06.108Z,4.30
2022-10-28T10:20:55.836Z,3.80
2022-10-28T10:23:33.983Z,4.40
2022-10-28T10:26:13.343Z,4.32
2022-10-28T10:28:47.366Z,4.20
2022-10-28T10:31:29.825Z,4.25
2022-10-28T10:33:57.600Z,3.70
2022-10-28T10:36:28.780Z,4.00
2022-10-28T10:39:02.920Z,4.22
2022-10-28T10:41:43.677Z,4.32
2022-10-28T10:47:23.915Z,4.72
2022-10-28T10:49:52.012Z,3.85
2022-10-28T10:52:24.350Z,3.33
2022-10-28T10:55:07.841Z,3.50
2022-10-28T10:57:35.088Z,3.65
2022-10-28T11:00:01.958Z,3.78
2022-10-28T11:02:35.740Z,4.00
2022-10-28T11:05:05.574Z,3.40
2022-10-28T11:07:33.250Z,3.10
2022-10-28T11:10:00.979Z,3.45
2022-10-28T11:12:35.661Z,4.28
2022-10-28T11:15:30.555Z,4.15
2022-10-28T11:18:17.144Z,3.33
2022-10-28T11:21:18.426Z,3.72
2022-10-28T11:24:09.051Z,3.50
2022-10-28T11:26:48.723Z,3.92
2022-10-28T11:29:16.484Z,3.72
2022-10-28T11:31:50.942Z,3.80
2022-10-28T11:34:49.678Z,3.67
2022-10-28T11:37:33.823Z,3.17
2022-10-28T11:40:18.116Z,3.47
2022-10-28T11:43:03.729Z,3.20
2022-10-28T11:45:52.820Z,3.00
2022-10-28T11:48:29.279Z,4.53
2022-10-28T11:51:06.018Z,3.50
2022-10-28T11:54:15.671Z,3.55
2022-10-28T11:56:48.915Z,3.03
2022-10-28T11:59:35.370Z,3.70
2022-10-28T12:02:27.995Z,3.47
2022-10-28T12:05:11.869Z,3.38
2022-10-28T12:08:05.850Z,3.17
2022-10-28T12:11:00.958Z,3.40
2022-10-28T12:13:36.400Z,3.80
2022-10-28T12:16:20.522Z,3.75
2022-10-28T12:19:03.651Z,3.75
2022-10-28T12:24:06.057Z,3.35
2022-10-28T12:26:42.020Z,3.63
2022-10-28T12:29:19.015Z,3.58
2022-10-28T12:31:50.260Z,3.75
2022-10-28T12:34:24.811Z,4.35
2022-10-28T12:36:58.812Z,3.53
2022-10-28T12:39:34.413Z,3.60
2022-10-28T12:42:10.796Z,3.70
2022-10-28T12:44:38.868Z,3.58
2022-10-28T12:47:22.051Z,3.70
2022-10-28T12:50:08.946Z,3.97
2022-10-28T12:52:38.340Z,3.30
2022-10-28T12:55:19.170Z,3.22
2022-10-28T12:58:00.200Z,3.22
2022-10-28T13:00:30.388Z,3.78
2022-10-28T13:05:42.743Z,3.78
2022-10-28T13:08:18.380Z,3.58
2022-10-28T13:11:21.468Z,3.55
2022-10-28T13:14:06.756Z,3.33
2022-10-28T13:16:50.021Z,3.35
2022-10-28T13:19:38.124Z,4.22
2022-10-28T13:22:46.317Z,4.28
2022-10-28T13:25:35.544Z,3.38
2022-10-28T13:28:03.051Z,3.50
2022-10-28T13:30:32.169Z,3.53
2022-10-28T13:36:20.465Z,3.80
2022-10-28T13:38:56.370Z,3.58
2022-10-28T13:42:00.688Z,3.83
2022-10-28T13:44:29.734Z,4.03
2022-10-28T13:46:59.551Z,3.03
2022-10-28T13:49:31.121Z,4.00
2022-10-28T13:52:20.465Z,3.30
2022-10-28T13:54:47.587Z,3.50
2022-10-28T13:57:28.539Z,3.03
2022-10-28T14:00:00.741Z,3.47
2022-10-28T14:02:47.554Z,4.10
2022-10-28T14:05:17.661Z,3.58
2022-10-28T14:10:24.675Z,3.45
2022-10-28T14:13:00.721Z,3.83
2022-10-28T14:15:31.739Z,3.65
2022-10-28T14:18:42.488Z,3.00
2022-10-28T14:21:09.803Z,3.90
2022-10-28T14:23:42.472Z,4.00
2022-10-28T14:26:09.151Z,3.63
2022-10-28T14:28:35.742Z,3.50
2022-10-28T14:31:20.845Z,4.70
2022-10-28T14:34:13.334Z,3.90
2022-10-28T14:37:06.757Z,3.67
2022-10-28T14:39:50.676Z,3.72
2022-10-28T14:45:40.616Z,3.85
2022-10-28T14:48:28.650Z,4.50
2022-10-28T14:50:57.354Z,4.53
2022-10-28T14:53:29.970Z,4.40
2022-10-28T14:56:10.523Z,4.05
2022-10-28T14:58:39.521Z,3.92
2022-10-28T15:01:26.989Z,4.25
2022-10-28T15:06:52.623Z,4.28
2022-10-28T15:09:28.908Z,4.13
2022-10-28T15:12:05.789Z,4.18
2022-10-28T15:14:39.683Z,5.05
2022-10-28T15:17:17.388Z,3.75
2022-10-28T15:19:49.755Z,4.72
2022-10-28T15:22:30.801Z,4.30
2022-10-28T15:25:04.874Z,4.85
2022-10-28T15:27:37.407Z,4.57
2022-10-28T15:30:20.889Z,4.95
2022-10-28T15:32:47.520Z,4.80
2022-10-28T15:35:35.721Z,4.63
2022-10-28T15:38:27.052Z,5.50
2022-10-28T15:40:53.972Z,4.88
2022-10-28T15:43:26.342Z,5.05
2022-10-28T15:45:53.188Z,5.28
2022-10-28T15:48:26.337Z,6.35
2022-10-28T15:51:15.065Z,6.07
2022-10-28T15:53:44.315Z,5.50
2022-10-28T15:56:14.004Z,5.70
2022-10-28T15:58:42.306Z,5.60
2022-10-28T16:01:27.200Z,4.93
2022-10-28T16:03:53.986Z,4.78
2022-10-28T16:06:25.139Z,5.07
2022-10-28T16:09:09.896Z,5.25
2022-10-28T16:11:41.865Z,5.00
2022-10-28T16:14:38.258Z,5.55
2022-10-28T16:17:30.127Z,5.38
2022-10-28T16:20:03.276Z,5.43
2022-10-28T16:22:34.221Z,5.68
2022-10-28T16:25:00.993Z,6.00
2022-10-28T16:27:31.298Z,6.22
2022-10-28T16:29:57.978Z,5.32
2022-10-28T16:32:39.490Z,5.32
2022-10-28T16:35:26.640Z,5.78
2022-10-28T16:37:55.513Z,6.00
2022-10-28T16:40:51.190Z,6.43
2022-10-28T16:43:16.577Z,6.40
2022-10-28T16:45:43.463Z,6.78
2022-10-28T16:48:13.762Z,8.32
2022-10-28T16:50:42.132Z,7.85
2022-10-28T16:53:12.023Z,9.23
2022-10-28T16:55:38.753Z,9.73
2022-10-28T16:58:05.913Z,7.95
2022-10-28T17:00:32.694Z,6.38
2022-10-28T17:02:59.930Z,7.15
2022-10-28T17:05:26.866Z,7.50
2022-10-28T17:07:56.611Z,7.15
2022-10-28T17:10:24.286Z,7.43
2022-10-28T17:12:51.162Z,6.25
2022-10-28T17:15:19.908Z,7.22
2022-10-28T17:17:49.917Z,7.85
2022-10-28T17:20:16.712Z,6.75
2022-10-28T17:22:43.426Z,7.25
2022-10-28T17:25:10.804Z,7.30
2022-10-28T17:27:37.473Z,6.85
2022-10-28T17:30:05.260Z,6.72
2022-10-28T17:32:31.958Z,6.90
2022-10-28T17:34:58.627Z,6.95
2022-10-28T17:37:25.200Z,6.53
2022-10-28T17:39:52.379Z,7.45
2022-10-28T17:42:19.271Z,7.18
2022-10-28T17:44:45.857Z,6.53
2022-10-28T17:47:12.888Z,6.72
2022-10-28T17:49:39.500Z,6.53
2022-10-28T17:52:06.085Z,7.07
2022-10-28T17:54:32.785Z,7.00
2022-10-28T17:56:59.436Z,6.70
2022-10-28T17:59:26.148Z,6.88
2022-10-28T18:01:52.933Z,6.28
2022-10-28T18:04:20.224Z,7.43
2022-10-28T18:06:46.931Z,6.68
2022-10-28T18:09:13.595Z,6.97
2022-10-28T18:11:40.901Z,6.70
2022-10-28T18:14:07.623Z,6.82
2022-10-28T18:16:36.328Z,7.45
2022-10-28T18:19:07.044Z,16.70
2022-10-28T18:21:34.106Z,13.95
2022-10-28T18:24:03.953Z,10.77
2022-10-28T18:28:58.963Z,6.88
2022-10-28T18:31:26.013Z,6.03
2022-10-28T18:33:53.281Z,6.30
2022-10-28T18:36:23.037Z,6.68
2022-10-28T18:38:50.488Z,6.75
2022-10-28T18:41:22.995Z,6.28
2022-10-28T18:43:53.893Z,5.57
2022-10-28T18:46:21.132Z,6.88
2022-10-28T18:48:48.153Z,6.57
2022-10-28T18:51:15.733Z,6.68
2022-10-28T18:53:46.486Z,6.25
2022-10-28T18:56:19.182Z,6.53
2022-10-28T18:58:51.150Z,6.60
2022-10-28T19:01:26.047Z,6.75
2022-10-28T19:03:54.656Z,6.38
2022-10-28T19:06:22.130Z,6.78
2022-10-28T19:08:54.064Z,7.22
2022-10-28T19:11:21.727Z,6.65
2022-10-28T19:13:49.138Z,6.55
2022-10-28T19:16:15.879Z,6.82
2022-10-28T19:18:42.683Z,7.43
2022-10-28T19:21:16.090Z,6.20
2022-10-28T19:23:43.440Z,6.40
2022-10-28T19:26:12.203Z,6.07
2022-10-28T19:28:40.560Z,7.22
2022-10-28T19:31:09.842Z,6.85
2022-10-28T19:33:40.215Z,7.15
2022-10-28T19:36:25.262Z,6.82
2022-10-28T19:38:53.851Z,7.47
2022-10-28T19:41:29.182Z,6.30
2022-10-28T19:43:58.486Z,7.20
2022-10-28T19:46:27.113Z,7.63
2022-10-28T19:48:55.753Z,7.40
2022-10-28T19:51:28.891Z,7.57
2022-10-28T19:54:00.655Z,6.75
2022-10-28T19:56:28.982Z,6.30
2022-10-28T19:58:58.158Z,6.97
2022-10-28T20:01:28.488Z,7.20
2022-10-28T20:03:56.287Z,7.20
2022-10-28T20:06:26.154Z,7.63
2022-10-28T20:08:53.250Z,7.38
2022-10-28T20:11:26.008Z,6.70
2022-10-28T20:14:01.888Z,7.82
2022-10-28T20:16:29.193Z,7.47
2022-10-28T20:18:56.957Z,7.40
2022-10-28T20:21:26.455Z,6.85
2022-10-28T20:23:55.215Z,7.78
2022-10-28T20:26:24.490Z,6.70
2022-10-28T20:28:51.658Z,6.97
2022-10-28T20:31:20.915Z,7.72
2022-10-28T20:33:52.743Z,8.27
2022-10-28T20:36:24.169Z,7.35
2022-10-28T20:38:59.718Z,7.53
2022-10-28T20:41:28.716Z,7.90
2022-10-28T20:43:55.610Z,8.10
2022-10-28T20:46:23.692Z,7.97
2022-10-28T20:48:50.626Z,8.02
2022-10-28T20:51:17.229Z,8.13
2022-10-28T20:53:43.898Z,8.07
2022-10-28T20:56:20.030Z,7.10
2022-10-28T20:58:47.128Z,7.43
2022-10-28T21:01:19.936Z,8.10
2022-10-28T21:03:47.425Z,9.50
2022-10-28T21:06:16.001Z,8.70
2022-10-28T21:08:43.372Z,8.35
2022-10-28T21:11:12.994Z,9.27
2022-10-28T21:13:40.168Z,9.27
2022-10-28T21:16:08.894Z,9.38
2022-10-28T21:18:37.158Z,9.50
2022-10-28T21:21:04.197Z,9.73
2022-10-28T21:26:22.521Z,8.60
2022-10-28T21:28:51.721Z,9.00
2022-10-28T21:31:19.163Z,9.20
2022-10-28T21:33:46.121Z,9.50
2022-10-28T21:36:15.006Z,8.70
2022-10-28T21:38:42.264Z,9.00
2022-10-28T21:41:12.792Z,10.07
2022-10-28T21:43:41.651Z,9.43
2022-10-28T21:46:09.263Z,9.27
2022-10-28T21:48:37.214Z,9.98
2022-10-28T21:51:10.180Z,9.18
2022-10-28T21:53:41.495Z,8.93
2022-10-28T21:56:16.957Z,9.25
2022-10-28T21:58:46.480Z,8.48
2022-10-28T22:01:19.339Z,8.90
2022-10-28T22:03:46.127Z,8.73
2022-10-28T22:06:13.294Z,7.80
2022-10-28T22:08:40.003Z,8.05
2022-10-28T22:11:18.416Z,8.63
2022-10-28T22:13:45.751Z,8.90
2022-10-28T22:16:17.689Z,8.52
2022-10-28T22:18:45.037Z,8.85
2022-10-28T22:21:22.966Z,7.85
2022-10-28T22:23:50.535Z,7.55
2022-10-28T22:26:20.616Z,7.95
2022-10-28T22:28:48.126Z,7.20
2022-10-28T22:31:17.644Z,8.27
2022-10-28T22:33:44.483Z,7.13
2022-10-28T22:36:13.660Z,8.50
2022-10-28T22:38:40.753Z,7.82
2022-10-28T22:41:19.425Z,8.25
2022-10-28T22:43:49.035Z,7.32
2022-10-28T22:46:17.019Z,8.23
2022-10-28T22:48:44.414Z,8.70
2022-10-28T22:51:11.441Z,8.02
2022-10-28T22:53:39.908Z,7.93
2022-10-28T22:56:08.461Z,7.20
2022-10-28T22:58:35.147Z,7.80
2022-10-28T23:01:13.501Z,8.02
2022-10-28T23:03:45.517Z,7.43
2022-10-28T23:06:14.748Z,7.95
2022-10-28T23:08:42.680Z,7.90
2022-10-28T23:11:09.908Z,6.80
2022-10-28T23:16:11.604Z,7.30
2022-10-28T23:18:38.449Z,6.40
2022-10-28T23:21:11.805Z,6.80
2022-10-28T23:23:38.788Z,7.30
2022-10-28T23:26:05.782Z,7.00
2022-10-28T23:28:32.371Z,6.43
2022-10-28T23:31:03.673Z,6.38
2022-10-28T23:33:31.722Z,6.65
2022-10-28T23:36:00.030Z,7.25
2022-10-28T23:38:27.185Z,6.80
2022-10-28T23:40:59.472Z,6.43
2022-10-28T23:43:27.048Z,6.45
2022-10-28T23:45:53.696Z,6.35
2022-10-28T23:48:21.232Z,5.68
2022-10-28T23:50:48.242Z,6.13
2022-10-28T23:53:15.248Z,5.90
2022-10-28T23:55:46.640Z,5.85
2022-10-28T23:58:14.058Z,6.43
